sensor_id;sensor_type;location;lat;lon;timestamp;P1;durP1;ratioP1;P2;durP2;ratioP2
16294;SDS011;8255;49.560;8.244;2022-08-21T00:02:19;3.50;;;2.50;;
16294;SDS011;8255;49.560;8.244;2022-08-21T00:04:47;5.97;;;2.40;;
16294;SDS011;8255;49.560;8.244;2022-08-21T00:07:14;3.00;;;2.58;;
16294;SDS011;8255;49.560;8.244;2022-08-21T00:09:40;4.63;;;3.28;;
16294;SDS011;8255;49.560;8.244;2022-08-21T00:12:07;3.85;;;2.97;;
16294;SDS011;8255;49.560;8.244;2022-08-21T00:14:34;5.63;;;3.03;;
16294;SDS011;8255;49.560;8.244;2022-08-21T00:17:00;4.05;;;2.70;;
16294;SDS011;8255;49.560;8.244;2022-08-21T00:19:27;2.83;;;2.63;;
16294;SDS011;8255;49.560;8.244;2022-08-21T00:21:55;3.03;;;2.50;;
16294;SDS011;8255;49.560;8.244;2022-08-21T00:24:22;6.95;;;3.03;;
16294;SDS011;8255;49.560;8.244;2022-08-21T00:26:49;4.82;;;2.95;;
16294;SDS011;8255;49.560;8.244;2022-08-21T00:29:15;6.43;;;2.88;;
16294;SDS011;8255;49.560;8.244;2022-08-21T00:31:42;3.25;;;2.95;;
16294;SDS011;8255;49.560;8.244;2022-08-21T00:34:09;3.05;;;2.67;;
16294;SDS011;8255;49.560;8.244;2022-08-21T00:36:36;4.88;;;2.80;;
16294;SDS011;8255;49.560;8.244;2022-08-21T00:39:05;4.10;;;2.95;;
16294;SDS011;8255;49.560;8.244;2022-08-21T00:41:32;3.00;;;2.80;;
16294;SDS011;8255;49.560;8.244;2022-08-21T00:43:58;4.18;;;2.90;;
16294;SDS011;8255;49.560;8.244;2022-08-21T00:46:25;3.58;;;3.00;;
16294;SDS011;8255;49.560;8.244;2022-08-21T00:48:51;2.67;;;2.47;;
16294;SDS011;8255;49.560;8.244;2022-08-21T00:51:19;4.95;;;2.67;;
16294;SDS011;8255;49.560;8.244;2022-08-21T00:53:48;2.95;;;2.63;;
16294;SDS011;8255;49.560;8.244;2022-08-21T00:56:18;4.00;;;2.58;;
16294;SDS011;8255;49.560;8.244;2022-08-21T00:58:45;4.47;;;2.95;;
16294;SDS011;8255;49.560;8.244;2022-08-21T01:01:12;3.78;;;2.80;;
16294;SDS011;8255;49.560;8.244;2022-08-21T01:03:38;3.13;;;2.58;;
16294;SDS011;8255;49.560;8.244;2022-08-21T01:06:05;6.28;;;3.00;;
16294;SDS011;8255;49.560;8.244;2022-08-21T01:08:32;5.15;;;2.70;;
16294;SDS011;8255;49.560;8.244;2022-08-21T01:10:59;5.03;;;2.97;;
16294;SDS011;8255;49.560;8.244;2022-08-21T01:13:27;4.75;;;2.72;;
16294;SDS011;8255;49.560;8.244;2022-08-21T01:15:56;2.75;;;2.55;;
16294;SDS011;8255;49.560;8.244;2022-08-21T01:18:24;3.03;;;2.60;;
16294;SDS011;8255;49.560;8.244;2022-08-21T01:21:02;3.38;;;3.08;;
16294;SDS011;8255;49.560;8.244;2022-08-21T01:23:29;3.63;;;2.90;;
16294;SDS011;8255;49.560;8.244;2022-08-21T01:25:55;4.70;;;3.20;;
16294;SDS011;8255;49.560;8.244;2022-08-21T01:28:22;3.65;;;2.80;;
16294;SDS011;8255;49.560;8.244;2022-08-21T01:30:49;3.40;;;2.72;;
16294;SDS011;8255;49.560;8.244;2022-08-21T01:33:16;3.55;;;2.72;;
16294;SDS011;8255;49.560;8.244;2022-08-21T01:35:43;3.15;;;2.83;;
16294;SDS011;8255;49.560;8.244;2022-08-21T01:38:11;3.95;;;3.00;;
16294;SDS011;8255;49.560;8.244;2022-08-21T01:40:37;3.33;;;2.83;;
16294;SDS011;8255;49.560;8.244;2022-08-21T01:43:04;4.97;;;3.42;;
16294;SDS011;8255;49.560;8.244;2022-08-21T01:45:30;3.13;;;2.83;;
16294;SDS011;8255;49.560;8.244;2022-08-21T01:47:56;2.85;;;2.53;;
16294;SDS011;8255;49.560;8.244;2022-08-21T01:50:23;5.47;;;3.30;;
16294;SDS011;8255;49.560;8.244;2022-08-21T01:52:49;5.07;;;3.33;;
16294;SDS011;8255;49.560;8.244;2022-08-21T01:55:20;3.30;;;3.00;;
16294;SDS011;8255;49.560;8.244;2022-08-21T01:57:47;4.75;;;2.67;;
16294;SDS011;8255;49.560;8.244;2022-08-21T02:00:15;3.97;;;3.20;;
16294;SDS011;8255;49.560;8.244;2022-08-21T02:02:43;4.53;;;3.10;;
16294;SDS011;8255;49.560;8.244;2022-08-21T02:05:10;4.07;;;3.15;;
16294;SDS011;8255;49.560;8.244;2022-08-21T02:07:36;3.60;;;3.20;;
16294;SDS011;8255;49.560;8.244;2022-08-21T02:10:05;4.85;;;2.97;;
16294;SDS011;8255;49.560;8.244;2022-08-21T02:12:34;4.95;;;2.85;;
16294;SDS011;8255;49.560;8.244;2022-08-21T02:15:00;3.40;;;2.80;;
16294;SDS011;8255;49.560;8.244;2022-08-21T02:17:27;3.53;;;2.75;;
16294;SDS011;8255;49.560;8.244;2022-08-21T02:19:53;4.20;;;2.90;;
16294;SDS011;8255;49.560;8.244;2022-08-21T02:22:20;4.28;;;3.15;;
16294;SDS011;8255;49.560;8.244;2022-08-21T02:24:46;4.53;;;3.30;;
16294;SDS011;8255;49.560;8.244;2022-08-21T02:27:12;3.75;;;2.72;;
16294;SDS011;8255;49.560;8.244;2022-08-21T02:29:40;3.70;;;2.80;;
16294;SDS011;8255;49.560;8.244;2022-08-21T02:32:06;3.35;;;3.08;;
16294;SDS011;8255;49.560;8.244;2022-08-21T02:34:33;3.22;;;2.90;;
16294;SDS011;8255;49.560;8.244;2022-08-21T02:36:59;2.90;;;2.55;;
16294;SDS011;8255;49.560;8.244;2022-08-21T02:39:26;5.05;;;3.33;;
16294;SDS011;8255;49.560;8.244;2022-08-21T02:41:52;4.03;;;2.88;;
16294;SDS011;8255;49.560;8.244;2022-08-21T02:44:18;3.33;;;3.00;;
16294;SDS011;8255;49.560;8.244;2022-08-21T02:46:46;4.30;;;3.05;;
16294;SDS011;8255;49.560;8.244;2022-08-21T02:49:12;2.80;;;2.60;;
16294;SDS011;8255;49.560;8.244;2022-08-21T02:51:39;4.60;;;3.10;;
16294;SDS011;8255;49.560;8.244;2022-08-21T02:54:06;5.47;;;3.08;;
16294;SDS011;8255;49.560;8.244;2022-08-21T02:56:32;3.15;;;2.88;;
16294;SDS011;8255;49.560;8.244;2022-08-21T02:58:58;5.55;;;2.80;;
16294;SDS011;8255;49.560;8.244;2022-08-21T03:01:25;3.22;;;2.92;;
16294;SDS011;8255;49.560;8.244;2022-08-21T03:03:53;3.22;;;2.85;;
16294;SDS011;8255;49.560;8.244;2022-08-21T03:06:20;3.47;;;2.90;;
16294;SDS011;8255;49.560;8.244;2022-08-21T03:08:47;4.00;;;2.58;;
16294;SDS011;8255;49.560;8.244;2022-08-21T03:11:14;3.33;;;2.90;;
16294;SDS011;8255;49.560;8.244;2022-08-21T03:13:41;3.08;;;2.80;;
16294;SDS011;8255;49.560;8.244;2022-08-21T03:16:07;3.67;;;2.95;;
16294;SDS011;8255;49.560;8.244;2022-08-21T03:18:34;4.45;;;3.10;;
16294;SDS011;8255;49.560;8.244;2022-08-21T03:21:02;3.75;;;3.05;;
16294;SDS011;8255;49.560;8.244;2022-08-21T03:23:29;5.32;;;3.40;;
16294;SDS011;8255;49.560;8.244;2022-08-21T03:25:58;3.50;;;3.10;;
16294;SDS011;8255;49.560;8.244;2022-08-21T03:28:24;4.10;;;2.88;;
16294;SDS011;8255;49.560;8.244;2022-08-21T03:30:51;3.80;;;2.92;;
16294;SDS011;8255;49.560;8.244;2022-08-21T03:33:18;3.47;;;3.00;;
16294;SDS011;8255;49.560;8.244;2022-08-21T03:35:45;5.03;;;2.90;;
16294;SDS011;8255;49.560;8.244;2022-08-21T03:38:15;4.88;;;3.17;;
16294;SDS011;8255;49.560;8.244;2022-08-21T03:40:41;4.05;;;3.20;;
16294;SDS011;8255;49.560;8.244;2022-08-21T03:43:08;3.15;;;2.95;;
16294;SDS011;8255;49.560;8.244;2022-08-21T03:45:35;3.35;;;2.80;;
16294;SDS011;8255;49.560;8.244;2022-08-21T03:48:02;5.15;;;3.20;;
16294;SDS011;8255;49.560;8.244;2022-08-21T03:50:30;4.07;;;2.50;;
16294;SDS011;8255;49.560;8.244;2022-08-21T03:52:57;3.83;;;2.70;;
16294;SDS011;8255;49.560;8.244;2022-08-21T03:55:26;3.83;;;3.00;;
16294;SDS011;8255;49.560;8.244;2022-08-21T03:57:52;4.82;;;3.10;;
16294;SDS011;8255;49.560;8.244;2022-08-21T04:00:19;4.95;;;2.97;;
16294;SDS011;8255;49.560;8.244;2022-08-21T04:02:46;3.13;;;2.72;;
16294;SDS011;8255;49.560;8.244;2022-08-21T04:05:13;3.55;;;3.00;;
16294;SDS011;8255;49.560;8.244;2022-08-21T04:07:52;2.70;;;2.50;;
16294;SDS011;8255;49.560;8.244;2022-08-21T04:10:18;2.88;;;2.67;;
16294;SDS011;8255;49.560;8.244;2022-08-21T04:12:46;4.97;;;2.85;;
16294;SDS011;8255;49.560;8.244;2022-08-21T04:15:12;3.53;;;3.00;;
16294;SDS011;8255;49.560;8.244;2022-08-21T04:17:39;3.60;;;2.90;;
16294;SDS011;8255;49.560;8.244;2022-08-21T04:20:06;3.75;;;3.20;;
16294;SDS011;8255;49.560;8.244;2022-08-21T04:22:33;3.72;;;3.00;;
16294;SDS011;8255;49.560;8.244;2022-08-21T04:24:59;2.70;;;2.50;;
16294;SDS011;8255;49.560;8.244;2022-08-21T04:27:25;4.20;;;2.70;;
16294;SDS011;8255;49.560;8.244;2022-08-21T04:29:53;4.82;;;3.03;;
16294;SDS011;8255;49.560;8.244;2022-08-21T04:32:21;4.55;;;2.97;;
16294;SDS011;8255;49.560;8.244;2022-08-21T04:34:47;4.32;;;3.10;;
16294;SDS011;8255;49.560;8.244;2022-08-21T04:37:14;3.15;;;2.88;;
16294;SDS011;8255;49.560;8.244;2022-08-21T04:39:41;4.55;;;3.00;;
16294;SDS011;8255;49.560;8.244;2022-08-21T04:42:07;7.82;;;3.53;;
16294;SDS011;8255;49.560;8.244;2022-08-21T04:44:36;4.10;;;3.17;;
16294;SDS011;8255;49.560;8.244;2022-08-21T04:47:04;4.80;;;3.03;;
16294;SDS011;8255;49.560;8.244;2022-08-21T04:49:30;2.78;;;2.58;;
16294;SDS011;8255;49.560;8.244;2022-08-21T04:51:58;3.78;;;3.10;;
16294;SDS011;8255;49.560;8.244;2022-08-21T04:54:25;3.85;;;2.97;;
16294;SDS011;8255;49.560;8.244;2022-08-21T04:56:52;5.75;;;3.30;;
16294;SDS011;8255;49.560;8.244;2022-08-21T04:59:21;5.15;;;3.33;;
16294;SDS011;8255;49.560;8.244;2022-08-21T05:01:48;4.93;;;3.35;;
16294;SDS011;8255;49.560;8.244;2022-08-21T05:04:18;4.22;;;3.10;;
16294;SDS011;8255;49.560;8.244;2022-08-21T05:06:45;3.88;;;3.17;;
16294;SDS011;8255;49.560;8.244;2022-08-21T05:09:12;5.65;;;3.25;;
16294;SDS011;8255;49.560;8.244;2022-08-21T05:11:40;5.47;;;3.38;;
16294;SDS011;8255;49.560;8.244;2022-08-21T05:14:07;4.80;;;3.50;;
16294;SDS011;8255;49.560;8.244;2022-08-21T05:16:33;5.93;;;3.50;;
16294;SDS011;8255;49.560;8.244;2022-08-21T05:19:00;5.03;;;3.30;;
16294;SDS011;8255;49.560;8.244;2022-08-21T05:21:28;3.90;;;3.35;;
16294;SDS011;8255;49.560;8.244;2022-08-21T05:23:54;7.97;;;3.22;;
16294;SDS011;8255;49.560;8.244;2022-08-21T05:26:20;5.35;;;3.35;;
16294;SDS011;8255;49.560;8.244;2022-08-21T05:28:47;4.22;;;3.35;;
16294;SDS011;8255;49.560;8.244;2022-08-21T05:31:13;5.93;;;2.88;;
16294;SDS011;8255;49.560;8.244;2022-08-21T05:33:40;3.58;;;3.10;;
16294;SDS011;8255;49.560;8.244;2022-08-21T05:36:06;4.60;;;3.33;;
16294;SDS011;8255;49.560;8.244;2022-08-21T05:38:34;4.18;;;3.42;;
16294;SDS011;8255;49.560;8.244;2022-08-21T05:41:00;5.28;;;3.03;;
16294;SDS011;8255;49.560;8.244;2022-08-21T05:43:27;5.30;;;3.25;;
16294;SDS011;8255;49.560;8.244;2022-08-21T05:45:53;4.20;;;3.50;;
16294;SDS011;8255;49.560;8.244;2022-08-21T05:48:21;3.35;;;3.05;;
16294;SDS011;8255;49.560;8.244;2022-08-21T05:50:48;9.60;;;3.60;;
16294;SDS011;8255;49.560;8.244;2022-08-21T05:53:18;4.00;;;3.58;;
16294;SDS011;8255;49.560;8.244;2022-08-21T05:55:46;5.15;;;3.35;;
16294;SDS011;8255;49.560;8.244;2022-08-21T05:58:13;5.90;;;3.50;;
16294;SDS011;8255;49.560;8.244;2022-08-21T06:00:39;4.57;;;3.70;;
16294;SDS011;8255;49.560;8.244;2022-08-21T06:03:10;5.03;;;3.40;;
16294;SDS011;8255;49.560;8.244;2022-08-21T06:05:36;5.93;;;3.25;;
16294;SDS011;8255;49.560;8.244;2022-08-21T06:08:03;5.28;;;3.50;;
16294;SDS011;8255;49.560;8.244;2022-08-21T06:10:29;3.83;;;3.53;;
16294;SDS011;8255;49.560;8.244;2022-08-21T06:12:57;4.47;;;3.42;;
16294;SDS011;8255;49.560;8.244;2022-08-21T06:15:23;4.65;;;3.60;;
16294;SDS011;8255;49.560;8.244;2022-08-21T06:17:51;4.50;;;3.40;;
16294;SDS011;8255;49.560;8.244;2022-08-21T06:20:18;5.70;;;3.58;;
16294;SDS011;8255;49.560;8.244;2022-08-21T06:22:44;4.25;;;3.10;;
16294;SDS011;8255;49.560;8.244;2022-08-21T06:25:11;3.63;;;3.28;;
16294;SDS011;8255;49.560;8.244;2022-08-21T06:27:37;9.07;;;3.08;;
16294;SDS011;8255;49.560;8.244;2022-08-21T06:30:05;4.65;;;2.90;;
16294;SDS011;8255;49.560;8.244;2022-08-21T06:32:32;3.58;;;3.28;;
16294;SDS011;8255;49.560;8.244;2022-08-21T06:34:58;3.63;;;3.30;;
16294;SDS011;8255;49.560;8.244;2022-08-21T06:37:25;5.70;;;3.05;;
16294;SDS011;8255;49.560;8.244;2022-08-21T06:39:52;6.20;;;3.30;;
16294;SDS011;8255;49.560;8.244;2022-08-21T06:42:18;4.75;;;3.33;;
16294;SDS011;8255;49.560;8.244;2022-08-21T06:44:45;4.88;;;3.10;;
16294;SDS011;8255;49.560;8.244;2022-08-21T06:47:14;4.03;;;3.13;;
16294;SDS011;8255;49.560;8.244;2022-08-21T06:49:40;4.55;;;3.20;;
16294;SDS011;8255;49.560;8.244;2022-08-21T06:52:08;4.38;;;3.10;;
16294;SDS011;8255;49.560;8.244;2022-08-21T06:54:34;5.50;;;3.78;;
16294;SDS011;8255;49.560;8.244;2022-08-21T06:57:01;6.35;;;3.08;;
16294;SDS011;8255;49.560;8.244;2022-08-21T06:59:27;4.90;;;3.20;;
16294;SDS011;8255;49.560;8.244;2022-08-21T07:01:53;3.85;;;2.90;;
16294;SDS011;8255;49.560;8.244;2022-08-21T07:04:21;3.33;;;2.90;;
16294;SDS011;8255;49.560;8.244;2022-08-21T07:06:48;4.50;;;2.70;;
16294;SDS011;8255;49.560;8.244;2022-08-21T07:09:14;4.85;;;2.90;;
16294;SDS011;8255;49.560;8.244;2022-08-21T07:11:41;4.13;;;2.92;;
16294;SDS011;8255;49.560;8.244;2022-08-21T07:14:07;3.22;;;2.60;;
16294;SDS011;8255;49.560;8.244;2022-08-21T07:16:34;5.20;;;2.90;;
16294;SDS011;8255;49.560;8.244;2022-08-21T07:19:00;3.85;;;2.95;;
16294;SDS011;8255;49.560;8.244;2022-08-21T07:21:28;3.63;;;2.95;;
16294;SDS011;8255;49.560;8.244;2022-08-21T07:23:54;4.25;;;2.90;;
16294;SDS011;8255;49.560;8.244;2022-08-21T07:26:22;5.57;;;3.17;;
16294;SDS011;8255;49.560;8.244;2022-08-21T07:28:48;3.30;;;3.03;;
16294;SDS011;8255;49.560;8.244;2022-08-21T07:31:17;5.15;;;3.00;;
16294;SDS011;8255;49.560;8.244;2022-08-21T07:33:44;4.78;;;3.20;;
16294;SDS011;8255;49.560;8.244;2022-08-21T07:36:10;4.28;;;3.15;;
16294;SDS011;8255;49.560;8.244;2022-08-21T07:38:38;2.65;;;2.45;;
16294;SDS011;8255;49.560;8.244;2022-08-21T07:41:20;3.95;;;2.80;;
16294;SDS011;8255;49.560;8.244;2022-08-21T07:43:47;5.10;;;3.60;;
16294;SDS011;8255;49.560;8.244;2022-08-21T07:46:13;4.65;;;2.95;;
16294;SDS011;8255;49.560;8.244;2022-08-21T07:48:40;4.30;;;3.28;;
16294;SDS011;8255;49.560;8.244;2022-08-21T07:51:08;3.55;;;2.97;;
16294;SDS011;8255;49.560;8.244;2022-08-21T07:53:35;4.38;;;3.42;;
16294;SDS011;8255;49.560;8.244;2022-08-21T07:56:06;5.15;;;3.00;;
16294;SDS011;8255;49.560;8.244;2022-08-21T07:58:33;5.32;;;2.97;;
16294;SDS011;8255;49.560;8.244;2022-08-21T08:01:00;4.82;;;3.15;;
16294;SDS011;8255;49.560;8.244;2022-08-21T08:03:26;3.80;;;2.90;;
16294;SDS011;8255;49.560;8.244;2022-08-21T08:05:53;5.38;;;3.60;;
16294;SDS011;8255;49.560;8.244;2022-08-21T08:08:19;3.97;;;2.60;;
16294;SDS011;8255;49.560;8.244;2022-08-21T08:10:45;4.60;;;3.00;;
16294;SDS011;8255;49.560;8.244;2022-08-21T08:13:13;5.43;;;3.00;;
16294;SDS011;8255;49.560;8.244;2022-08-21T08:15:39;4.22;;;3.17;;
16294;SDS011;8255;49.560;8.244;2022-08-21T08:18:06;4.28;;;3.53;;
16294;SDS011;8255;49.560;8.244;2022-08-21T08:20:32;5.15;;;3.17;;
16294;SDS011;8255;49.560;8.244;2022-08-21T08:22:59;4.18;;;2.88;;
16294;SDS011;8255;49.560;8.244;2022-08-21T08:25:26;4.03;;;3.28;;
16294;SDS011;8255;49.560;8.244;2022-08-21T08:27:52;6.93;;;3.30;;
16294;SDS011;8255;49.560;8.244;2022-08-21T08:30:20;3.65;;;3.20;;
16294;SDS011;8255;49.560;8.244;2022-08-21T08:32:48;8.30;;;3.70;;
16294;SDS011;8255;49.560;8.244;2022-08-21T08:35:15;4.32;;;3.70;;
16294;SDS011;8255;49.560;8.244;2022-08-21T08:37:42;3.75;;;3.15;;
16294;SDS011;8255;49.560;8.244;2022-08-21T08:40:11;3.47;;;3.22;;
16294;SDS011;8255;49.560;8.244;2022-08-21T08:42:38;3.72;;;3.40;;
16294;SDS011;8255;49.560;8.244;2022-08-21T08:45:05;4.32;;;3.40;;
16294;SDS011;8255;49.560;8.244;2022-08-21T08:47:36;7.72;;;3.75;;
16294;SDS011;8255;49.560;8.244;2022-08-21T08:50:04;3.55;;;3.22;;
16294;SDS011;8255;49.560;8.244;2022-08-21T08:52:32;4.68;;;3.63;;
16294;SDS011;8255;49.560;8.244;2022-08-21T08:55:01;4.72;;;3.58;;
16294;SDS011;8255;49.560;8.244;2022-08-21T08:57:28;4.80;;;3.30;;
16294;SDS011;8255;49.560;8.244;2022-08-21T08:59:56;9.05;;;3.83;;
16294;SDS011;8255;49.560;8.244;2022-08-21T09:02:24;5.30;;;3.25;;
16294;SDS011;8255;49.560;8.244;2022-08-21T09:04:54;7.05;;;3.42;;
16294;SDS011;8255;49.560;8.244;2022-08-21T09:07:23;4.43;;;3.50;;
16294;SDS011;8255;49.560;8.244;2022-08-21T09:09:56;4.70;;;3.30;;
16294;SDS011;8255;49.560;8.244;2022-08-21T09:12:29;7.25;;;3.40;;
16294;SDS011;8255;49.560;8.244;2022-08-21T09:15:01;4.20;;;3.65;;
16294;SDS011;8255;49.560;8.244;2022-08-21T09:17:36;5.95;;;3.60;;
16294;SDS011;8255;49.560;8.244;2022-08-21T09:20:11;6.97;;;3.65;;
16294;SDS011;8255;49.560;8.244;2022-08-21T09:22:44;4.85;;;3.47;;
16294;SDS011;8255;49.560;8.244;2022-08-21T09:25:15;3.60;;;3.35;;
16294;SDS011;8255;49.560;8.244;2022-08-21T09:27:45;4.40;;;3.47;;
16294;SDS011;8255;49.560;8.244;2022-08-21T09:30:11;4.25;;;3.55;;
16294;SDS011;8255;49.560;8.244;2022-08-21T09:32:38;4.97;;;3.67;;
16294;SDS011;8255;49.560;8.244;2022-08-21T09:35:06;5.05;;;3.38;;
16294;SDS011;8255;49.560;8.244;2022-08-21T09:37:44;5.28;;;3.67;;
16294;SDS011;8255;49.560;8.244;2022-08-21T09:40:15;5.47;;;3.20;;
16294;SDS011;8255;49.560;8.244;2022-08-21T09:42:53;6.65;;;3.50;;
16294;SDS011;8255;49.560;8.244;2022-08-21T09:45:19;4.82;;;3.30;;
16294;SDS011;8255;49.560;8.244;2022-08-21T09:47:46;3.42;;;2.95;;
16294;SDS011;8255;49.560;8.244;2022-08-21T09:50:13;5.10;;;3.17;;
16294;SDS011;8255;49.560;8.244;2022-08-21T09:52:44;3.92;;;3.20;;
16294;SDS011;8255;49.560;8.244;2022-08-21T09:55:14;5.75;;;3.30;;
16294;SDS011;8255;49.560;8.244;2022-08-21T09:58:02;4.45;;;2.95;;
16294;SDS011;8255;49.560;8.244;2022-08-21T10:00:29;4.18;;;3.33;;
16294;SDS011;8255;49.560;8.244;2022-08-21T10:03:06;4.25;;;2.83;;
16294;SDS011;8255;49.560;8.244;2022-08-21T10:05:33;4.40;;;2.90;;
16294;SDS011;8255;49.560;8.244;2022-08-21T10:08:01;5.80;;;3.10;;
16294;SDS011;8255;49.560;8.244;2022-08-21T10:10:29;2.50;;;2.30;;
16294;SDS011;8255;49.560;8.244;2022-08-21T10:12:58;3.72;;;2.40;;
16294;SDS011;8255;49.560;8.244;2022-08-21T10:15:32;4.75;;;2.42;;
16294;SDS011;8255;49.560;8.244;2022-08-21T10:18:03;4.25;;;2.78;;
16294;SDS011;8255;49.560;8.244;2022-08-21T10:20:34;2.97;;;2.40;;
16294;SDS011;8255;49.560;8.244;2022-08-21T10:23:06;3.25;;;2.38;;
16294;SDS011;8255;49.560;8.244;2022-08-21T10:25:36;3.15;;;2.42;;
16294;SDS011;8255;49.560;8.244;2022-08-21T10:28:05;3.42;;;2.78;;
16294;SDS011;8255;49.560;8.244;2022-08-21T10:30:36;3.97;;;2.58;;
16294;SDS011;8255;49.560;8.244;2022-08-21T10:33:08;3.75;;;3.30;;
16294;SDS011;8255;49.560;8.244;2022-08-21T10:35:39;4.15;;;2.80;;
16294;SDS011;8255;49.560;8.244;2022-08-21T10:38:35;2.65;;;2.45;;
16294;SDS011;8255;49.560;8.244;2022-08-21T10:41:01;3.15;;;2.35;;
16294;SDS011;8255;49.560;8.244;2022-08-21T10:43:30;2.45;;;2.30;;
16294;SDS011;8255;49.560;8.244;2022-08-21T10:46:02;3.63;;;2.53;;
16294;SDS011;8255;49.560;8.244;2022-08-21T10:48:32;2.95;;;2.55;;
16294;SDS011;8255;49.560;8.244;2022-08-21T10:51:04;3.70;;;2.50;;
16294;SDS011;8255;49.560;8.244;2022-08-21T10:53:40;3.90;;;2.40;;
16294;SDS011;8255;49.560;8.244;2022-08-21T10:56:11;3.42;;;2.30;;
16294;SDS011;8255;49.560;8.244;2022-08-21T10:58:40;2.78;;;2.40;;
16294;SDS011;8255;49.560;8.244;2022-08-21T11:01:08;3.35;;;2.60;;
16294;SDS011;8255;49.560;8.244;2022-08-21T11:03:39;4.10;;;2.35;;
16294;SDS011;8255;49.560;8.244;2022-08-21T11:06:08;2.42;;;2.22;;
16294;SDS011;8255;49.560;8.244;2022-08-21T11:08:39;5.03;;;2.88;;
16294;SDS011;8255;49.560;8.244;2022-08-21T11:11:07;3.10;;;2.30;;
16294;SDS011;8255;49.560;8.244;2022-08-21T11:13:36;3.40;;;2.47;;
16294;SDS011;8255;49.560;8.244;2022-08-21T11:16:05;2.63;;;2.33;;
16294;SDS011;8255;49.560;8.244;2022-08-21T11:18:34;2.20;;;2.00;;
16294;SDS011;8255;49.560;8.244;2022-08-21T11:21:04;3.63;;;2.47;;
16294;SDS011;8255;49.560;8.244;2022-08-21T11:23:36;3.35;;;2.25;;
16294;SDS011;8255;49.560;8.244;2022-08-21T11:26:07;4.40;;;2.38;;
16294;SDS011;8255;49.560;8.244;2022-08-21T11:28:35;4.20;;;2.63;;
16294;SDS011;8255;49.560;8.244;2022-08-21T11:31:07;3.35;;;2.55;;
16294;SDS011;8255;49.560;8.244;2022-08-21T11:33:43;5.55;;;2.80;;
16294;SDS011;8255;49.560;8.244;2022-08-21T11:36:15;4.45;;;2.40;;
16294;SDS011;8255;49.560;8.244;2022-08-21T11:38:46;2.60;;;2.40;;
16294;SDS011;8255;49.560;8.244;2022-08-21T11:41:19;3.25;;;2.78;;
16294;SDS011;8255;49.560;8.244;2022-08-21T11:43:48;4.88;;;2.42;;
16294;SDS011;8255;49.560;8.244;2022-08-21T11:46:20;2.92;;;2.45;;
16294;SDS011;8255;49.560;8.244;2022-08-21T11:48:54;2.65;;;2.30;;
16294;SDS011;8255;49.560;8.244;2022-08-21T11:51:26;3.70;;;2.50;;
16294;SDS011;8255;49.560;8.244;2022-08-21T11:53:56;2.92;;;2.33;;
16294;SDS011;8255;49.560;8.244;2022-08-21T11:56:28;3.78;;;2.28;;
16294;SDS011;8255;49.560;8.244;2022-08-21T11:58:58;3.63;;;2.40;;
16294;SDS011;8255;49.560;8.244;2022-08-21T12:01:27;3.38;;;2.42;;
16294;SDS011;8255;49.560;8.244;2022-08-21T12:03:55;2.50;;;2.00;;
16294;SDS011;8255;49.560;8.244;2022-08-21T12:06:30;3.40;;;2.60;;
16294;SDS011;8255;49.560;8.244;2022-08-21T12:08:58;4.40;;;2.25;;
16294;SDS011;8255;49.560;8.244;2022-08-21T12:11:25;3.00;;;2.28;;
16294;SDS011;8255;49.560;8.244;2022-08-21T12:13:55;2.42;;;2.25;;
16294;SDS011;8255;49.560;8.244;2022-08-21T12:16:30;3.15;;;2.30;;
16294;SDS011;8255;49.560;8.244;2022-08-21T12:19:02;3.42;;;2.10;;
16294;SDS011;8255;49.560;8.244;2022-08-21T12:21:29;2.60;;;2.38;;
16294;SDS011;8255;49.560;8.244;2022-08-21T12:24:03;3.85;;;2.58;;
16294;SDS011;8255;49.560;8.244;2022-08-21T12:26:31;3.15;;;2.20;;
16294;SDS011;8255;49.560;8.244;2022-08-21T12:29:06;2.50;;;2.30;;
16294;SDS011;8255;49.560;8.244;2022-08-21T12:31:33;3.22;;;2.35;;
16294;SDS011;8255;49.560;8.244;2022-08-21T12:34:01;2.78;;;2.35;;
16294;SDS011;8255;49.560;8.244;2022-08-21T12:36:30;2.40;;;2.20;;
16294;SDS011;8255;49.560;8.244;2022-08-21T12:39:03;2.58;;;2.38;;
16294;SDS011;8255;49.560;8.244;2022-08-21T12:41:32;2.50;;;2.30;;
16294;SDS011;8255;49.560;8.244;2022-08-21T12:44:00;3.03;;;2.50;;
16294;SDS011;8255;49.560;8.244;2022-08-21T12:46:31;2.63;;;2.33;;
16294;SDS011;8255;49.560;8.244;2022-08-21T12:49:00;2.25;;;2.05;;
16294;SDS011;8255;49.560;8.244;2022-08-21T12:51:29;2.95;;;2.42;;
16294;SDS011;8255;49.560;8.244;2022-08-21T12:53:57;3.10;;;2.58;;
16294;SDS011;8255;49.560;8.244;2022-08-21T12:56:25;2.53;;;2.28;;
16294;SDS011;8255;49.560;8.244;2022-08-21T12:58:53;2.65;;;2.45;;
16294;SDS011;8255;49.560;8.244;2022-08-21T13:01:22;3.10;;;2.60;;
16294;SDS011;8255;49.560;8.244;2022-08-21T13:03:51;3.13;;;2.47;;
16294;SDS011;8255;49.560;8.244;2022-08-21T13:06:19;3.40;;;2.20;;
16294;SDS011;8255;49.560;8.244;2022-08-21T13:08:46;4.63;;;2.45;;
16294;SDS011;8255;49.560;8.244;2022-08-21T13:11:14;3.13;;;2.40;;
16294;SDS011;8255;49.560;8.244;2022-08-21T13:13:42;2.67;;;2.40;;
16294;SDS011;8255;49.560;8.244;2022-08-21T13:16:08;2.85;;;2.30;;
16294;SDS011;8255;49.560;8.244;2022-08-21T13:18:36;2.67;;;2.38;;
16294;SDS011;8255;49.560;8.244;2022-08-21T13:21:07;2.33;;;2.15;;
16294;SDS011;8255;49.560;8.244;2022-08-21T13:23:36;3.00;;;2.42;;
16294;SDS011;8255;49.560;8.244;2022-08-21T13:26:11;5.38;;;2.50;;
16294;SDS011;8255;49.560;8.244;2022-08-21T13:28:38;2.40;;;2.20;;
16294;SDS011;8255;49.560;8.244;2022-08-21T13:31:06;3.00;;;2.30;;
16294;SDS011;8255;49.560;8.244;2022-08-21T13:33:35;2.83;;;2.53;;
16294;SDS011;8255;49.560;8.244;2022-08-21T13:36:04;3.25;;;2.58;;
16294;SDS011;8255;49.560;8.244;2022-08-21T13:38:33;2.00;;;1.88;;
16294;SDS011;8255;49.560;8.244;2022-08-21T13:41:01;3.47;;;2.17;;
16294;SDS011;8255;49.560;8.244;2022-08-21T13:43:31;2.60;;;2.30;;
16294;SDS011;8255;49.560;8.244;2022-08-21T13:45:57;2.30;;;2.10;;
16294;SDS011;8255;49.560;8.244;2022-08-21T13:48:26;2.42;;;2.30;;
16294;SDS011;8255;49.560;8.244;2022-08-21T13:50:56;3.95;;;2.17;;
16294;SDS011;8255;49.560;8.244;2022-08-21T13:53:27;2.90;;;2.13;;
16294;SDS011;8255;49.560;8.244;2022-08-21T13:55:56;2.50;;;2.30;;
16294;SDS011;8255;49.560;8.244;2022-08-21T13:58:24;2.40;;;2.20;;
16294;SDS011;8255;49.560;8.244;2022-08-21T14:00:51;3.13;;;2.33;;
16294;SDS011;8255;49.560;8.244;2022-08-21T14:03:23;3.13;;;2.17;;
16294;SDS011;8255;49.560;8.244;2022-08-21T14:05:51;2.50;;;2.30;;
16294;SDS011;8255;49.560;8.244;2022-08-21T14:08:20;4.72;;;2.22;;
16294;SDS011;8255;49.560;8.244;2022-08-21T14:10:50;2.97;;;2.13;;
16294;SDS011;8255;49.560;8.244;2022-08-21T14:16:01;2.53;;;2.33;;
16294;SDS011;8255;49.560;8.244;2022-08-21T14:18:28;2.65;;;2.10;;
16294;SDS011;8255;49.560;8.244;2022-08-21T14:21:03;3.42;;;2.53;;
16294;SDS011;8255;49.560;8.244;2022-08-21T14:23:30;2.80;;;2.53;;
16294;SDS011;8255;49.560;8.244;2022-08-21T14:25:58;4.20;;;2.20;;
16294;SDS011;8255;49.560;8.244;2022-08-21T14:28:26;3.05;;;2.20;;
16294;SDS011;8255;49.560;8.244;2022-08-21T14:30:53;2.95;;;2.10;;
16294;SDS011;8255;49.560;8.244;2022-08-21T14:33:23;2.45;;;2.10;;
16294;SDS011;8255;49.560;8.244;2022-08-21T14:35:50;2.78;;;2.25;;
16294;SDS011;8255;49.560;8.244;2022-08-21T14:38:18;4.43;;;2.25;;
16294;SDS011;8255;49.560;8.244;2022-08-21T14:40:47;2.25;;;2.05;;
16294;SDS011;8255;49.560;8.244;2022-08-21T14:43:13;2.63;;;2.38;;
16294;SDS011;8255;49.560;8.244;2022-08-21T14:45:40;2.58;;;2.22;;
16294;SDS011;8255;49.560;8.244;2022-08-21T14:48:08;2.50;;;2.30;;
16294;SDS011;8255;49.560;8.244;2022-08-21T14:50:36;2.38;;;2.00;;
16294;SDS011;8255;49.560;8.244;2022-08-21T14:53:03;3.28;;;2.35;;
16294;SDS011;8255;49.560;8.244;2022-08-21T14:55:30;2.55;;;2.10;;
16294;SDS011;8255;49.560;8.244;2022-08-21T14:58:16;2.65;;;2.22;;
16294;SDS011;8255;49.560;8.244;2022-08-21T15:00:43;2.80;;;2.20;;
16294;SDS011;8255;49.560;8.244;2022-08-21T15:03:09;3.30;;;2.40;;
16294;SDS011;8255;49.560;8.244;2022-08-21T15:05:37;2.47;;;2.28;;
16294;SDS011;8255;49.560;8.244;2022-08-21T15:08:04;3.00;;;2.15;;
16294;SDS011;8255;49.560;8.244;2022-08-21T15:10:30;2.83;;;2.40;;